N962TU KPDK-KCEU
Flight info
| Callsign | N962TU |
|---|---|
| Flight time | N/A |
| Altitude | VFR/045 |
| Route | FF |
| Aircraft | C172/L-DOV/C |
Departure
| Time | 2026-04-28 22:07 |
|---|---|
| Airport | DeKalb Peachtree Airport (KPDK) |
Arrival
| Time | N/A |
|---|---|
| Airport | Oconee County Regional Airport (KCEU) |
| Time | Latitude | Longitude | Altitude | Speed | Heading |
|---|---|---|---|---|---|
| 2026-04-28 22:01 | 33.87967 | -84.30519 | 989 ft | 0 kts | 240° |
| 2026-04-28 22:03 | 33.87950 | -84.30511 | 993 ft | 10 kts | 115° |
| 2026-04-28 22:04 | 33.87880 | -84.30426 | 993 ft | 14 kts | 159° |
| 2026-04-28 22:04 | 33.87808 | -84.30388 | 995 ft | 8 kts | 140° |
| 2026-04-28 22:04 | 33.87810 | -84.30334 | 993 ft | 7 kts | 69° |
| 2026-04-28 22:04 | 33.87843 | -84.30272 | 996 ft | 12 kts | 50° |
| 2026-04-28 22:05 | 33.87871 | -84.30192 | 999 ft | 5 kts | 106° |
| 2026-04-28 22:05 | 33.87868 | -84.30179 | 1000 ft | 0 kts | 108° |
| 2026-04-28 22:06 | 33.87866 | -84.30173 | 1000 ft | 5 kts | 111° |
| 2026-04-28 22:06 | 33.87743 | -84.30180 | 998 ft | 39 kts | 200° |
| 2026-04-28 22:06 | 33.87362 | -84.30351 | 1022 ft | 72 kts | 199° |
| 2026-04-28 22:07 | 33.86878 | -84.30575 | 1180 ft | 77 kts | 211° |
| 2026-04-28 22:07 | 33.86894 | -84.31181 | 1340 ft | 92 kts | 297° |
| 2026-04-28 22:07 | 33.87421 | -84.31520 | 1508 ft | 105 kts | 12° |
| 2026-04-28 22:07 | 33.88078 | -84.31208 | 1687 ft | 104 kts | 23° |
| 2026-04-28 22:08 | 33.88775 | -84.30909 | 1813 ft | 107 kts | 20° |
| 2026-04-28 22:08 | 33.89480 | -84.30658 | 2018 ft | 109 kts | 17° |
| 2026-04-28 22:08 | 33.90230 | -84.30374 | 2150 ft | 116 kts | 19° |
| 2026-04-28 22:08 | 33.90999 | -84.30072 | 2279 ft | 117 kts | 18° |
| 2026-04-28 22:09 | 33.91783 | -84.29756 | 2401 ft | 120 kts | 19° |
| 2026-04-28 22:09 | 33.92578 | -84.29424 | 2529 ft | 122 kts | 19° |
| 2026-04-28 22:09 | 33.93382 | -84.29079 | 2652 ft | 124 kts | 18° |
| 2026-04-28 22:09 | 33.94190 | -84.28723 | 2781 ft | 123 kts | 18° |
| 2026-04-28 22:10 | 33.94978 | -84.28365 | 2949 ft | 119 kts | 17° |
| 2026-04-28 22:10 | 33.95740 | -84.28012 | 3115 ft | 116 kts | 17° |
| 2026-04-28 22:10 | 33.96490 | -84.27656 | 3283 ft | 115 kts | 17° |
| 2026-04-28 22:10 | 33.97233 | -84.27296 | 3455 ft | 115 kts | 17° |
| 2026-04-28 22:11 | 33.97967 | -84.26933 | 3622 ft | 114 kts | 17° |
| 2026-04-28 22:11 | 33.98700 | -84.26560 | 3792 ft | 114 kts | 15° |
| 2026-04-28 22:11 | 33.99426 | -84.26187 | 3964 ft | 113 kts | 17° |
| 2026-04-28 22:11 | 34.00143 | -84.25803 | 4132 ft | 112 kts | 17° |
| 2026-04-28 22:12 | 34.00846 | -84.25419 | 4301 ft | 111 kts | 17° |
| 2026-04-28 22:12 | 34.01541 | -84.25028 | 4479 ft | 110 kts | 16° |
| 2026-04-28 22:12 | 34.02268 | -84.24619 | 4502 ft | 120 kts | 17° |
| 2026-04-28 22:12 | 34.03047 | -84.24176 | 4506 ft | 127 kts | 18° |
| 2026-04-28 22:13 | 34.03860 | -84.23706 | 4509 ft | 132 kts | 19° |
| 2026-04-28 22:13 | 34.04692 | -84.23211 | 4508 ft | 135 kts | 19° |
| 2026-04-28 22:13 | 34.05533 | -84.22694 | 4506 ft | 136 kts | 21° |
| 2026-04-28 22:13 | 34.06321 | -84.22050 | 4505 ft | 143 kts | 48° |
| 2026-04-28 22:14 | 34.06899 | -84.21072 | 4510 ft | 143 kts | 51° |
| 2026-04-28 22:14 | 34.07283 | -84.20420 | 4512 ft | 144 kts | 51° |
| 2026-04-28 22:14 | 34.07836 | -84.19419 | 4520 ft | 144 kts | 58° |
| 2026-04-28 22:14 | 34.08348 | -84.18368 | 4519 ft | 146 kts | 58° |
| 2026-04-28 22:15 | 34.08865 | -84.17315 | 4518 ft | 145 kts | 58° |
| 2026-04-28 22:15 | 34.09377 | -84.16271 | 4515 ft | 144 kts | 58° |
| 2026-04-28 22:15 | 34.09890 | -84.15230 | 4516 ft | 144 kts | 57° |
| 2026-04-28 22:15 | 34.10399 | -84.14188 | 4516 ft | 144 kts | 57° |
| 2026-04-28 22:16 | 34.10907 | -84.13154 | 4515 ft | 143 kts | 57° |
| 2026-04-28 22:16 | 34.11416 | -84.12121 | 4516 ft | 143 kts | 57° |
| 2026-04-28 22:16 | 34.11920 | -84.11086 | 4513 ft | 142 kts | 58° |
| 2026-04-28 22:16 | 34.12423 | -84.10060 | 4515 ft | 142 kts | 57° |
| 2026-04-28 22:17 | 34.12929 | -84.09026 | 4517 ft | 143 kts | 57° |
| 2026-04-28 22:17 | 34.13436 | -84.07988 | 4515 ft | 143 kts | 57° |
| 2026-04-28 22:17 | 34.13943 | -84.06958 | 4516 ft | 142 kts | 58° |
| 2026-04-28 22:17 | 34.14456 | -84.05931 | 4517 ft | 143 kts | 57° |
| 2026-04-28 22:18 | 34.14969 | -84.04897 | 4516 ft | 143 kts | 57° |
| 2026-04-28 22:18 | 34.15475 | -84.03862 | 4518 ft | 143 kts | 57° |
| 2026-04-28 22:18 | 34.15983 | -84.02832 | 4517 ft | 143 kts | 57° |
| 2026-04-28 22:18 | 34.16487 | -84.01813 | 4509 ft | 143 kts | 57° |
| 2026-04-28 22:19 | 34.16995 | -84.00781 | 4510 ft | 143 kts | 58° |
| 2026-04-28 22:19 | 34.17502 | -83.99749 | 4509 ft | 143 kts | 57° |
| 2026-04-28 22:19 | 34.18008 | -83.98715 | 4508 ft | 143 kts | 57° |
| 2026-04-28 22:19 | 34.18513 | -83.97679 | 4506 ft | 143 kts | 57° |
| 2026-04-28 22:20 | 34.19014 | -83.96647 | 4507 ft | 143 kts | 57° |
| 2026-04-28 22:20 | 34.19513 | -83.95609 | 4509 ft | 143 kts | 57° |
| 2026-04-28 22:20 | 34.20014 | -83.94568 | 4512 ft | 144 kts | 58° |
| 2026-04-28 22:20 | 34.20526 | -83.93522 | 4510 ft | 145 kts | 57° |
| 2026-04-28 22:21 | 34.21036 | -83.92472 | 4511 ft | 145 kts | 57° |
| 2026-04-28 22:21 | 34.21543 | -83.91415 | 4514 ft | 145 kts | 57° |
| 2026-04-28 22:21 | 34.22054 | -83.90361 | 4507 ft | 146 kts | 57° |
| 2026-04-28 22:21 | 34.22557 | -83.89301 | 4506 ft | 145 kts | 58° |
| 2026-04-28 22:22 | 34.23059 | -83.88251 | 4506 ft | 144 kts | 57° |
| 2026-04-28 22:22 | 34.23558 | -83.87203 | 4505 ft | 144 kts | 57° |
| 2026-04-28 22:22 | 34.24059 | -83.86153 | 4504 ft | 145 kts | 57° |
| 2026-04-28 22:22 | 34.24553 | -83.85111 | 4506 ft | 145 kts | 57° |
| 2026-04-28 22:23 | 34.25054 | -83.84047 | 4508 ft | 145 kts | 57° |
| 2026-04-28 22:23 | 34.25555 | -83.82996 | 4507 ft | 143 kts | 57° |
| 2026-04-28 22:23 | 34.26055 | -83.81956 | 4505 ft | 144 kts | 57° |
| 2026-04-28 22:23 | 34.26545 | -83.80899 | 4505 ft | 144 kts | 58° |
| 2026-04-28 22:24 | 34.27044 | -83.79849 | 4504 ft | 144 kts | 57° |
| 2026-04-28 22:24 | 34.27547 | -83.78805 | 4506 ft | 143 kts | 56° |
| 2026-04-28 22:24 | 34.28034 | -83.77753 | 4505 ft | 143 kts | 57° |
| 2026-04-28 22:24 | 34.28522 | -83.76695 | 4504 ft | 145 kts | 57° |
| 2026-04-28 22:25 | 34.29016 | -83.75632 | 4504 ft | 145 kts | 57° |
| 2026-04-28 22:25 | 34.29509 | -83.74567 | 4503 ft | 145 kts | 57° |
| 2026-04-28 22:25 | 34.30000 | -83.73503 | 4504 ft | 145 kts | 57° |
| 2026-04-28 22:25 | 34.30498 | -83.72442 | 4505 ft | 145 kts | 57° |
| 2026-04-28 22:26 | 34.31003 | -83.71378 | 4505 ft | 146 kts | 57° |
| 2026-04-28 22:26 | 34.31505 | -83.70308 | 4515 ft | 146 kts | 56° |
| 2026-04-28 22:26 | 34.31992 | -83.69235 | 4516 ft | 145 kts | 57° |
| 2026-04-28 22:26 | 34.32472 | -83.68161 | 4517 ft | 146 kts | 57° |
| 2026-04-28 22:27 | 34.32964 | -83.67076 | 4515 ft | 148 kts | 57° |
| 2026-04-28 22:27 | 34.33450 | -83.66005 | 4513 ft | 147 kts | 57° |
| 2026-04-28 22:27 | 34.33933 | -83.64926 | 4510 ft | 145 kts | 57° |
| 2026-04-28 22:27 | 34.34412 | -83.63853 | 4511 ft | 145 kts | 57° |
| 2026-04-28 22:28 | 34.34897 | -83.62784 | 4501 ft | 144 kts | 57° |
| 2026-04-28 22:28 | 34.35367 | -83.61724 | 4501 ft | 143 kts | 57° |
| 2026-04-28 22:28 | 34.35840 | -83.60659 | 4507 ft | 144 kts | 57° |
| 2026-04-28 22:28 | 34.36322 | -83.59592 | 4499 ft | 144 kts | 57° |
| 2026-04-28 22:29 | 34.36802 | -83.58529 | 4497 ft | 144 kts | 57° |
| 2026-04-28 22:29 | 34.37284 | -83.57476 | 4493 ft | 143 kts | 57° |
| 2026-04-28 22:29 | 34.37772 | -83.56421 | 4496 ft | 144 kts | 57° |
| 2026-04-28 22:29 | 34.38256 | -83.55366 | 4499 ft | 143 kts | 57° |
| 2026-04-28 22:30 | 34.38739 | -83.54308 | 4498 ft | 144 kts | 57° |
| 2026-04-28 22:30 | 34.39221 | -83.53249 | 4499 ft | 144 kts | 57° |
| 2026-04-28 22:30 | 34.39703 | -83.52182 | 4497 ft | 144 kts | 57° |
| 2026-04-28 22:30 | 34.40184 | -83.51109 | 4498 ft | 145 kts | 57° |
| 2026-04-28 22:31 | 34.40668 | -83.50031 | 4505 ft | 146 kts | 57° |
| 2026-04-28 22:31 | 34.41157 | -83.48956 | 4506 ft | 146 kts | 57° |
| 2026-04-28 22:31 | 34.41646 | -83.47881 | 4502 ft | 146 kts | 57° |
| 2026-04-28 22:31 | 34.42131 | -83.46804 | 4502 ft | 145 kts | 57° |
| 2026-04-28 22:32 | 34.42613 | -83.45730 | 4501 ft | 144 kts | 57° |
| 2026-04-28 22:32 | 34.43093 | -83.44669 | 4502 ft | 143 kts | 57° |
| 2026-04-28 22:32 | 34.43573 | -83.43602 | 4504 ft | 145 kts | 57° |
| 2026-04-28 22:32 | 34.44052 | -83.42532 | 4502 ft | 144 kts | 58° |
| 2026-04-28 22:33 | 34.44469 | -83.41437 | 4501 ft | 146 kts | 62° |
| 2026-04-28 22:33 | 34.44884 | -83.40316 | 4504 ft | 146 kts | 62° |
| 2026-04-28 22:33 | 34.45303 | -83.39193 | 4499 ft | 146 kts | 62° |
| 2026-04-28 22:33 | 34.45719 | -83.38075 | 4496 ft | 145 kts | 62° |
| 2026-04-28 22:34 | 34.46135 | -83.36956 | 4498 ft | 146 kts | 62° |
| 2026-04-28 22:34 | 34.46550 | -83.35831 | 4498 ft | 146 kts | 62° |
| 2026-04-28 22:34 | 34.46963 | -83.34704 | 4496 ft | 146 kts | 62° |
| 2026-04-28 22:34 | 34.47381 | -83.33581 | 4496 ft | 146 kts | 62° |
| 2026-04-28 22:35 | 34.47800 | -83.32457 | 4496 ft | 147 kts | 62° |
| 2026-04-28 22:35 | 34.48225 | -83.31334 | 4499 ft | 146 kts | 59° |
| 2026-04-28 22:35 | 34.48731 | -83.30279 | 4495 ft | 144 kts | 54° |
| 2026-04-28 22:35 | 34.49246 | -83.29234 | 4494 ft | 144 kts | 54° |
| 2026-04-28 22:36 | 34.49768 | -83.28194 | 4493 ft | 144 kts | 53° |
| 2026-04-28 22:36 | 34.50286 | -83.27155 | 4492 ft | 144 kts | 54° |
| 2026-04-28 22:36 | 34.50803 | -83.26118 | 4490 ft | 144 kts | 54° |
| 2026-04-28 22:36 | 34.51320 | -83.25080 | 4493 ft | 144 kts | 54° |
| 2026-04-28 22:37 | 34.51841 | -83.24043 | 4490 ft | 144 kts | 54° |
| 2026-04-28 22:37 | 34.52363 | -83.23000 | 4500 ft | 146 kts | 54° |
| 2026-04-28 22:37 | 34.52893 | -83.21950 | 4494 ft | 145 kts | 54° |
| 2026-04-28 22:37 | 34.53416 | -83.20908 | 4495 ft | 145 kts | 54° |
| 2026-04-28 22:38 | 34.53943 | -83.19863 | 4497 ft | 145 kts | 54° |
| 2026-04-28 22:38 | 34.54471 | -83.18819 | 4495 ft | 145 kts | 53° |
| 2026-04-28 22:38 | 34.54988 | -83.17784 | 4504 ft | 142 kts | 54° |